Time;durP1;ratioP1;P1;durP2;ratioP2;P2;SDS_P1;SDS_P2;PMS_P1;PMS_P2;Temp;Humidity;BMP_temperature;BMP_pressure;BME280_temperature;BME280_humidity;BME280_pressure;Samples;Min_cycle;Max_cycle;Signal;HPM_P1;HPM_P2
2024/01/14 00:01:19;;;;;;;0.10;0.10;;;6.00;99.90;;;;;;5021279;28;20759;-70
2024/01/14 00:03:44;;;;;;;0.10;0.10;;;6.00;99.90;;;;;;5028220;28;20037;-70
2024/01/14 00:06:10;;;;;;;0.32;0.32;;;6.00;99.90;;;;;;5029122;28;20548;-71
2024/01/14 00:08:36;;;;;;;0.10;0.10;;;6.00;99.90;;;;;;5022879;28;20053;-71
2024/01/14 00:11:02;;;;;;;0.10;0.10;;;5.90;99.90;;;;;;5022456;28;20083;-71
2024/01/14 00:13:28;;;;;;;0.10;0.10;;;5.90;99.90;;;;;;5021494;28;20045;-71
2024/01/14 00:15:53;;;;;;;0.10;0.10;;;5.90;99.90;;;;;;5026304;28;20401;-70
2024/01/14 00:18:19;;;;;;;0.10;0.10;;;5.90;99.90;;;;;;5034405;28;20037;-71
2024/01/14 00:20:44;;;;;;;0.38;0.38;;;5.90;99.90;;;;;;5022062;28;20515;-70
2024/01/14 00:23:10;;;;;;;0.10;0.10;;;5.90;99.90;;;;;;5028034;28;20041;-71
2024/01/14 00:25:36;;;;;;;0.10;0.10;;;5.80;99.90;;;;;;5025134;28;20100;-71
2024/01/14 00:28:02;;;;;;;0.10;0.10;;;5.90;99.90;;;;;;5018526;28;20397;-71
2024/01/14 00:30:27;;;;;;;0.10;0.10;;;5.80;99.90;;;;;;5026905;28;20405;-71
2024/01/14 00:32:53;;;;;;;0.10;0.10;;;5.80;99.90;;;;;;5022637;28;20034;-71
2024/01/14 00:35:18;;;;;;;1.00;1.00;;;5.80;99.90;;;;;;5023733;28;20072;-71
2024/01/14 00:37:44;;;;;;;2.88;0.32;;;5.80;99.90;;;;;;5030756;28;20053;-71
2024/01/14 00:40:10;;;;;;;0.15;0.15;;;5.80;99.90;;;;;;5028197;28;20056;-71
2024/01/14 00:42:36;;;;;;;0.30;0.30;;;5.80;99.90;;;;;;5022848;28;20054;-71
2024/01/14 00:45:02;;;;;;;0.10;0.10;;;5.80;99.90;;;;;;5013529;28;20497;-71
2024/01/14 00:47:30;;;;;;;0.30;0.30;;;5.70;99.90;;;;;;5018579;28;20045;-70
2024/01/14 00:49:56;;;;;;;0.10;0.10;;;5.70;99.90;;;;;;5028187;28;20141;-71
2024/01/14 00:52:22;;;;;;;0.10;0.10;;;5.70;99.90;;;;;;5028534;28;20214;-71
2024/01/14 00:54:47;;;;;;;0.10;0.10;;;5.70;99.90;;;;;;5016631;28;20085;-70
2024/01/14 00:57:13;;;;;;;0.10;0.10;;;5.60;99.90;;;;;;5018231;28;20049;-71
2024/01/14 00:59:39;;;;;;;0.10;0.10;;;5.60;99.90;;;;;;5028529;28;20033;-70
2024/01/14 01:02:04;;;;;;;0.10;0.10;;;5.50;99.90;;;;;;5023768;28;20034;-70
2024/01/14 01:04:30;;;;;;;0.10;0.10;;;5.50;99.90;;;;;;5022846;28;20042;-71
2024/01/14 01:06:55;;;;;;;9.20;2.10;;;5.60;99.90;;;;;;5027814;28;20049;-70
2024/01/14 01:09:21;;;;;;;0.10;0.10;;;5.50;99.90;;;;;;5028998;28;20049;-71
2024/01/14 01:11:47;;;;;;;0.10;0.10;;;5.50;99.90;;;;;;5022044;28;20038;-70
2024/01/14 01:14:14;;;;;;;0.10;0.10;;;5.50;99.90;;;;;;5023455;28;20045;-70
2024/01/14 01:16:40;;;;;;;0.17;0.17;;;5.50;99.90;;;;;;5032796;28;20511;-70
2024/01/14 01:19:06;;;;;;;0.10;0.10;;;5.50;99.90;;;;;;5027488;28;20077;-71
2024/01/14 01:21:31;;;;;;;0.10;0.10;;;5.50;99.90;;;;;;5018263;28;20061;-70
2024/01/14 01:23:57;;;;;;;0.10;0.10;;;5.50;99.90;;;;;;5019254;28;20092;-70
2024/01/14 01:26:23;;;;;;;0.40;0.40;;;5.50;99.90;;;;;;5021354;28;20041;-71
2024/01/14 01:28:48;;;;;;;0.10;0.10;;;5.40;99.90;;;;;;5031967;28;20128;-70
2024/01/14 01:31:14;;;;;;;0.75;0.75;;;5.30;99.90;;;;;;5020287;28;20076;-70
2024/01/14 01:33:40;;;;;;;1.45;1.35;;;5.30;99.90;;;;;;5032867;28;20052;-70
2024/01/14 01:36:06;;;;;;;3.83;1.85;;;5.30;99.90;;;;;;5032226;28;20481;-70
2024/01/14 01:38:32;;;;;;;0.10;0.10;;;5.20;99.90;;;;;;5027835;28;20054;-70
2024/01/14 01:40:58;;;;;;;0.10;0.10;;;5.20;99.90;;;;;;5027314;28;20092;-70
2024/01/14 01:43:24;;;;;;;0.32;0.32;;;5.20;99.90;;;;;;5025788;28;20489;-70
2024/01/14 01:45:50;;;;;;;0.10;0.10;;;5.20;99.90;;;;;;5031187;28;20037;-70
2024/01/14 01:48:15;;;;;;;0.10;0.10;;;5.20;99.90;;;;;;5031788;28;20056;-70
2024/01/14 01:50:43;;;;;;;0.43;0.43;;;5.20;99.90;;;;;;5025833;28;20034;-71
2024/01/14 01:53:09;;;;;;;0.10;0.10;;;5.20;99.90;;;;;;5023435;28;20065;-70
2024/01/14 01:55:35;;;;;;;0.10;0.10;;;5.20;99.90;;;;;;5027018;28;20488;-70
2024/01/14 01:58:01;;;;;;;0.63;0.63;;;5.20;99.90;;;;;;5031976;28;20048;-71
2024/01/14 02:00:28;;;;;;;0.10;0.10;;;5.10;99.90;;;;;;5022159;28;20049;-70
2024/01/14 02:02:54;;;;;;;0.13;0.13;;;5.10;99.90;;;;;;5024882;28;20508;-70
2024/01/14 02:05:20;;;;;;;0.10;0.10;;;5.10;99.90;;;;;;5047215;28;20076;-70
2024/01/14 02:07:46;;;;;;;0.10;0.10;;;5.10;99.90;;;;;;5017064;28;20502;-70
2024/01/14 02:10:11;;;;;;;0.10;0.10;;;5.10;99.90;;;;;;5030977;28;20045;-70
2024/01/14 02:12:37;;;;;;;3.72;1.55;;;5.00;99.90;;;;;;5029041;28;20052;-70
2024/01/14 02:15:03;;;;;;;0.10;0.10;;;5.00;99.90;;;;;;5025608;28;20413;-70
2024/01/14 02:17:29;;;;;;;0.10;0.10;;;5.00;99.90;;;;;;5031175;28;20068;-71
2024/01/14 02:19:54;;;;;;;0.10;0.10;;;5.00;99.90;;;;;;5030516;28;20041;-71
2024/01/14 02:22:27;;;;;;;0.10;0.10;;;4.90;99.90;;;;;;5016167;28;20053;-70
2024/01/14 02:24:53;;;;;;;0.10;0.10;;;5.00;99.90;;;;;;5030020;28;20103;-70
2024/01/14 02:27:19;;;;;;;0.10;0.10;;;4.90;99.90;;;;;;5021454;28;20126;-70
2024/01/14 02:29:46;;;;;;;0.10;0.10;;;4.90;99.90;;;;;;5022985;28;20045;-70
2024/01/14 02:32:12;;;;;;;0.20;0.20;;;4.80;99.90;;;;;;5030449;28;20464;-70
2024/01/14 02:34:37;;;;;;;0.10;0.10;;;4.90;99.90;;;;;;5030524;28;20045;-70
2024/01/14 02:37:03;;;;;;;0.10;0.10;;;4.90;99.90;;;;;;5019657;28;20057;-70
2024/01/14 02:39:28;;;;;;;0.93;0.93;;;4.80;99.90;;;;;;5031408;28;20046;-70
2024/01/14 02:41:55;;;;;;;0.10;0.10;;;4.80;99.90;;;;;;5022486;28;20041;-70
2024/01/14 02:44:21;;;;;;;0.10;0.10;;;4.80;99.90;;;;;;5030259;28;20045;-70
2024/01/14 02:46:46;;;;;;;0.13;0.13;;;4.80;99.90;;;;;;5028057;28;20052;-71
2024/01/14 02:49:12;;;;;;;0.10;0.10;;;4.80;99.90;;;;;;5020039;28;20129;-70
2024/01/14 02:51:37;;;;;;;0.10;0.10;;;4.80;99.90;;;;;;5025616;28;20034;-70
2024/01/14 02:54:03;;;;;;;0.10;0.10;;;4.80;99.90;;;;;;5026739;28;20041;-70
2024/01/14 02:56:29;;;;;;;0.25;0.25;;;4.80;99.90;;;;;;5027424;28;20566;-70
2024/01/14 02:58:55;;;;;;;0.10;0.10;;;4.90;99.90;;;;;;5014546;28;20046;-70
2024/01/14 03:01:21;;;;;;;0.40;0.40;;;4.80;99.90;;;;;;5025557;28;20042;-70
2024/01/14 03:03:47;;;;;;;0.10;0.10;;;4.80;99.90;;;;;;5021551;28;20657;-70
2024/01/14 03:06:12;;;;;;;0.03;0.03;;;4.80;99.90;;;;;;5026046;28;20046;-70
2024/01/14 03:08:39;;;;;;;0.10;0.10;;;4.80;99.90;;;;;;5039460;28;20045;-71
2024/01/14 03:11:05;;;;;;;0.10;0.10;;;4.80;99.90;;;;;;5028610;28;20053;-70
2024/01/14 03:13:30;;;;;;;0.10;0.10;;;4.80;99.90;;;;;;5028026;28;20037;-70
2024/01/14 03:15:56;;;;;;;0.20;0.20;;;4.90;99.90;;;;;;5026048;28;20037;-70
2024/01/14 03:18:22;;;;;;;0.10;0.10;;;5.00;99.90;;;;;;5025516;28;20048;-71
2024/01/14 03:20:47;;;;;;;0.10;0.10;;;4.90;99.90;;;;;;5018325;28;20159;-71
2024/01/14 03:23:13;;;;;;;1.95;1.85;;;5.00;99.90;;;;;;5025009;28;20045;-71
2024/01/14 03:25:38;;;;;;;0.10;0.10;;;5.00;99.90;;;;;;5028492;28;20085;-70
2024/01/14 03:28:04;;;;;;;0.13;0.13;;;5.10;99.90;;;;;;5022273;28;20083;-70
2024/01/14 03:30:30;;;;;;;0.10;0.10;;;5.10;99.90;;;;;;5027010;28;20098;-69
2024/01/14 03:32:55;;;;;;;0.10;0.10;;;5.20;99.90;;;;;;5020684;28;20037;-70
2024/01/14 03:35:21;;;;;;;0.35;0.35;;;5.20;99.90;;;;;;5030363;28;20037;-70
2024/01/14 03:37:46;;;;;;;0.10;0.10;;;5.20;99.90;;;;;;5024599;28;20065;-70
2024/01/14 03:40:12;;;;;;;0.13;0.13;;;5.20;99.90;;;;;;5017901;28;20048;-69
2024/01/14 03:42:37;;;;;;;1.67;1.17;;;5.20;99.90;;;;;;5022031;28;20046;-69
2024/01/14 03:45:04;;;;;;;0.10;0.10;;;5.20;99.90;;;;;;5014320;28;20053;-69
2024/01/14 03:47:30;;;;;;;0.20;0.20;;;5.30;99.90;;;;;;5026809;28;20048;-70
2024/01/14 03:49:55;;;;;;;0.10;0.10;;;5.30;99.90;;;;;;5018593;28;20437;-70
2024/01/14 03:52:21;;;;;;;0.10;0.10;;;5.30;99.90;;;;;;5026561;28;20068;-69
2024/01/14 03:54:46;;;;;;;0.00;0.00;;;5.30;99.90;;;;;;5019223;28;20041;-69
2024/01/14 03:57:12;;;;;;;0.10;0.10;;;5.30;99.90;;;;;;5025354;28;20087;-69
2024/01/14 03:59:38;;;;;;;0.00;0.00;;;5.20;99.90;;;;;;5019371;28;20091;-70
2024/01/14 04:02:04;;;;;;;0.10;0.10;;;5.20;99.90;;;;;;5026718;28;20112;-69
2024/01/14 04:04:29;;;;;;;0.10;0.10;;;5.10;99.90;;;;;;5017758;28;20076;-70
2024/01/14 04:06:55;;;;;;;0.10;0.10;;;5.10;99.90;;;;;;5024214;28;20061;-70
2024/01/14 04:09:21;;;;;;;0.10;0.10;;;5.00;99.90;;;;;;5029368;28;20539;-69
2024/01/14 04:11:46;;;;;;;0.10;0.10;;;5.00;99.90;;;;;;5022448;28;20053;-70
2024/01/14 04:14:12;;;;;;;0.10;0.10;;;4.90;99.90;;;;;;5040770;28;20462;-69
2024/01/14 04:16:41;;;;;;;0.30;0.30;;;4.90;99.90;;;;;;5028609;28;20041;-69
2024/01/14 04:19:07;;;;;;;0.10;0.10;;;4.80;99.90;;;;;;5037088;28;20053;-69
2024/01/14 04:21:33;;;;;;;0.52;0.52;;;4.80;99.90;;;;;;5026300;28;20041;-69
2024/01/14 04:23:59;;;;;;;0.13;0.13;;;4.80;99.90;;;;;;5029680;28;20481;-69
2024/01/14 04:26:25;;;;;;;0.10;0.10;;;4.70;99.90;;;;;;5027361;28;20037;-69
2024/01/14 04:28:52;;;;;;;1.10;1.10;;;4.70;99.90;;;;;;5013459;28;20048;-69
2024/01/14 04:31:18;;;;;;;0.38;0.38;;;4.70;99.90;;;;;;5024376;28;20037;-69
2024/01/14 04:33:46;;;;;;;0.10;0.10;;;4.70;99.90;;;;;;5028537;28;20516;-69
2024/01/14 04:36:12;;;;;;;0.10;0.10;;;4.70;99.90;;;;;;5021062;28;20049;-69
2024/01/14 04:38:38;;;;;;;0.10;0.10;;;4.80;99.90;;;;;;5024688;28;20054;-69
2024/01/14 04:41:04;;;;;;;0.00;0.00;;;4.90;99.90;;;;;;5021093;28;20405;-69
2024/01/14 04:43:29;;;;;;;0.10;0.10;;;4.90;99.90;;;;;;5024285;28;20131;-69
2024/01/14 04:45:55;;;;;;;0.10;0.10;;;4.90;99.90;;;;;;5020960;28;20067;-69
2024/01/14 04:48:21;;;;;;;0.73;0.73;;;4.90;99.90;;;;;;5027580;28;20135;-69
2024/01/14 04:50:46;;;;;;;0.10;0.10;;;4.90;99.90;;;;;;5022949;28;20046;-69
2024/01/14 04:53:12;;;;;;;2.25;1.17;;;4.90;99.90;;;;;;5019519;28;20081;-69
2024/01/14 04:55:38;;;;;;;0.00;0.00;;;5.00;99.90;;;;;;5028709;28;20491;-70
2024/01/14 04:58:03;;;;;;;0.10;0.10;;;5.00;99.90;;;;;;5027788;28;20049;-70
2024/01/14 05:00:29;;;;;;;0.10;0.10;;;5.00;99.90;;;;;;5019319;28;20052;-69
2024/01/14 05:02:55;;;;;;;3.38;2.63;;;5.00;99.90;;;;;;5023515;28;20045;-69
2024/01/14 05:05:20;;;;;;;0.10;0.10;;;5.00;99.90;;;;;;5021632;28;20045;-69
2024/01/14 05:07:46;;;;;;;0.10;0.10;;;5.00;99.90;;;;;;5026752;28;20068;-69
2024/01/14 05:10:12;;;;;;;0.10;0.10;;;5.00;99.90;;;;;;5028658;28;20109;-70
2024/01/14 05:12:38;;;;;;;0.10;0.10;;;5.00;99.90;;;;;;5027050;28;20045;-70
2024/01/14 05:15:04;;;;;;;0.10;0.10;;;5.00;99.90;;;;;;5016437;28;20046;-70
2024/01/14 05:17:29;;;;;;;0.10;0.10;;;4.90;99.90;;;;;;5026074;28;20099;-70
2024/01/14 05:19:55;;;;;;;0.50;0.50;;;4.90;99.90;;;;;;5029854;28;20057;-69
2024/01/14 05:22:20;;;;;;;0.10;0.10;;;5.00;99.90;;;;;;5015592;28;20053;-70
2024/01/14 05:24:46;;;;;;;0.17;0.17;;;4.90;99.90;;;;;;5023703;28;20041;-70
2024/01/14 05:27:12;;;;;;;0.10;0.10;;;4.90;99.90;;;;;;5028081;28;20053;-69
2024/01/14 05:29:41;;;;;;;0.10;0.10;;;4.90;99.90;;;;;;5027915;28;20120;-70
2024/01/14 05:32:14;;;;;;;0.00;0.00;;;4.90;99.90;;;;;;5018277;28;20045;-70
2024/01/14 05:34:40;;;;;;;0.10;0.10;;;4.90;99.90;;;;;;5024904;28;20049;-70
2024/01/14 05:37:06;;;;;;;2.40;1.08;;;4.90;99.90;;;;;;5021497;28;20053;-69
2024/01/14 05:39:33;;;;;;;0.10;0.10;;;4.90;99.90;;;;;;5023077;28;20038;-70
2024/01/14 05:41:58;;;;;;;0.10;0.10;;;4.90;99.90;;;;;;5017760;28;20051;-70
2024/01/14 05:44:25;;;;;;;0.10;0.10;;;4.80;99.90;;;;;;5028773;28;20037;-69
2024/01/14 05:46:51;;;;;;;0.15;0.15;;;4.90;99.90;;;;;;5027545;28;20120;-70
2024/01/14 05:49:17;;;;;;;0.10;0.10;;;4.90;99.90;;;;;;5021854;28;20552;-69
2024/01/14 05:51:42;;;;;;;0.10;0.10;;;4.80;99.90;;;;;;5020181;28;20029;-70
2024/01/14 05:54:08;;;;;;;0.10;0.10;;;4.90;99.90;;;;;;5027870;28;20103;-70
2024/01/14 05:56:34;;;;;;;0.15;0.15;;;4.90;99.90;;;;;;5025366;28;20076;-69
2024/01/14 05:59:00;;;;;;;0.10;0.10;;;4.90;99.90;;;;;;5020188;28;20056;-70
2024/01/14 06:01:27;;;;;;;0.10;0.10;;;4.90;99.90;;;;;;5025544;28;20095;-69
2024/01/14 06:03:52;;;;;;;0.30;0.30;;;5.00;99.90;;;;;;5028564;28;20116;-69
2024/01/14 06:06:19;;;;;;;0.10;0.10;;;4.90;99.90;;;;;;5015375;28;20161;-69
2024/01/14 06:08:44;;;;;;;0.10;0.10;;;5.00;99.90;;;;;;5023426;28;20046;-69
2024/01/14 06:11:12;;;;;;;0.10;0.10;;;5.00;99.90;;;;;;5029028;28;20072;-69
2024/01/14 06:13:37;;;;;;;0.10;0.10;;;4.90;99.90;;;;;;5019215;28;20042;-69
2024/01/14 06:16:03;;;;;;;0.10;0.10;;;4.90;99.90;;;;;;5027723;28;20041;-70
2024/01/14 06:18:29;;;;;;;0.10;0.10;;;4.90;99.90;;;;;;5029249;28;20397;-69
2024/01/14 06:20:55;;;;;;;0.10;0.10;;;4.80;99.90;;;;;;5029402;28;20079;-69
2024/01/14 06:23:21;;;;;;;0.10;0.10;;;4.80;99.90;;;;;;5023426;28;20041;-69
2024/01/14 06:25:47;;;;;;;0.10;0.10;;;4.80;99.90;;;;;;5020731;28;20493;-69
2024/01/14 06:28:13;;;;;;;0.10;0.10;;;4.90;99.90;;;;;;5023756;28;20168;-69
2024/01/14 06:30:38;;;;;;;0.10;0.10;;;4.90;99.90;;;;;;5015121;28;20034;-69
2024/01/14 06:33:04;;;;;;;0.10;0.10;;;4.90;99.90;;;;;;5029975;28;20127;-69
2024/01/14 06:35:30;;;;;;;0.15;0.15;;;4.90;99.90;;;;;;5030493;28;20037;-69
2024/01/14 06:37:55;;;;;;;0.10;0.10;;;4.90;99.90;;;;;;5028978;28;20179;-69
2024/01/14 06:40:21;;;;;;;0.10;0.10;;;4.90;99.90;;;;;;5021220;28;20046;-69
2024/01/14 06:42:46;;;;;;;0.10;0.10;;;4.90;99.90;;;;;;5023314;28;20050;-69
2024/01/14 06:45:13;;;;;;;0.10;0.10;;;4.90;99.90;;;;;;5017874;28;20081;-69
2024/01/14 06:47:38;;;;;;;0.10;0.10;;;4.90;99.90;;;;;;5024570;28;20030;-69
2024/01/14 06:50:05;;;;;;;1.38;1.27;;;4.90;99.90;;;;;;5021299;28;20049;-69
2024/01/14 06:52:30;;;;;;;0.10;0.10;;;4.90;99.90;;;;;;5029471;28;20041;-69
2024/01/14 06:54:56;;;;;;;0.10;0.10;;;4.90;99.90;;;;;;5029066;28;20055;-69
2024/01/14 06:57:22;;;;;;;0.52;0.52;;;4.90;99.90;;;;;;5019070;28;20485;-69
2024/01/14 06:59:48;;;;;;;0.10;0.10;;;4.90;99.90;;;;;;5025886;28;20492;-70
2024/01/14 07:02:14;;;;;;;0.10;0.10;;;4.90;99.90;;;;;;5028286;28;20127;-69
2024/01/14 07:04:40;;;;;;;0.10;0.10;;;4.90;99.90;;;;;;5021064;28;20053;-69
2024/01/14 07:07:07;;;;;;;0.10;0.10;;;4.90;99.90;;;;;;5028718;28;20037;-69
2024/01/14 07:09:34;;;;;;;0.38;0.38;;;5.00;99.90;;;;;;5029808;28;20133;-69
2024/01/14 07:12:00;;;;;;;0.40;0.40;;;5.00;99.90;;;;;;5023416;28;20489;-69
2024/01/14 07:14:26;;;;;;;0.10;0.10;;;4.90;99.90;;;;;;5026520;28;20076;-69
2024/01/14 07:16:52;;;;;;;0.10;0.10;;;4.90;99.90;;;;;;5021570;28;20045;-69
2024/01/14 07:19:17;;;;;;;0.10;0.10;;;4.90;99.90;;;;;;5020501;28;20040;-68
2024/01/14 07:21:43;;;;;;;0.10;0.10;;;5.00;99.90;;;;;;5028270;28;20084;-69
2024/01/14 07:24:08;;;;;;;0.10;0.10;;;4.90;99.90;;;;;;5028282;28;20139;-69
2024/01/14 07:26:34;;;;;;;0.10;0.10;;;4.90;99.90;;;;;;5025647;28;20038;-69
2024/01/14 07:29:00;;;;;;;1.65;1.25;;;4.90;99.90;;;;;;5023330;28;20523;-69
2024/01/14 07:31:30;;;;;;;0.10;0.10;;;4.90;99.90;;;;;;5028461;28;20033;-69
2024/01/14 07:33:57;;;;;;;0.10;0.10;;;4.90;99.90;;;;;;5029620;28;20041;-69
2024/01/14 07:36:23;;;;;;;0.10;0.10;;;4.90;99.90;;;;;;5023772;28;20065;-69
2024/01/14 07:38:50;;;;;;;0.10;0.10;;;4.90;99.90;;;;;;5027789;28;20559;-69
2024/01/14 07:41:16;;;;;;;0.10;0.10;;;4.90;99.90;;;;;;5031060;28;20056;-69
2024/01/14 07:43:42;;;;;;;0.10;0.10;;;4.80;99.90;;;;;;5028694;28;20041;-69
2024/01/14 07:46:08;;;;;;;0.20;0.20;;;4.80;99.90;;;;;;5022390;28;20046;-69
2024/01/14 07:48:34;;;;;;;0.10;0.10;;;4.80;99.90;;;;;;5027963;28;20041;-69
2024/01/14 07:51:00;;;;;;;0.10;0.10;;;4.80;99.90;;;;;;5029124;28;20064;-69
2024/01/14 07:53:26;;;;;;;0.68;0.68;;;4.80;99.90;;;;;;5022823;28;20072;-69
2024/01/14 07:55:52;;;;;;;0.10;0.10;;;4.70;99.90;;;;;;5025351;28;20057;-69
2024/01/14 07:58:18;;;;;;;0.10;0.10;;;4.70;99.90;;;;;;5029581;28;20045;-69
2024/01/14 08:00:44;;;;;;;0.10;0.10;;;4.70;99.90;;;;;;5028545;28;20049;-69
2024/01/14 08:03:09;;;;;;;0.20;0.20;;;4.70;99.90;;;;;;5018648;28;20042;-69
2024/01/14 08:05:38;;;;;;;0.10;0.10;;;4.70;99.90;;;;;;5015870;28;20037;-69
2024/01/14 08:08:04;;;;;;;0.10;0.10;;;4.60;99.90;;;;;;5020440;28;20053;-69
2024/01/14 08:10:30;;;;;;;0.45;0.45;;;4.60;99.90;;;;;;5029138;28;20041;-69
2024/01/14 08:12:56;;;;;;;0.10;0.10;;;4.60;99.90;;;;;;5028468;28;20077;-69
2024/01/14 08:15:21;;;;;;;0.10;0.10;;;4.70;99.90;;;;;;5026483;28;20512;-69
2024/01/14 08:17:47;;;;;;;0.10;0.10;;;4.70;99.90;;;;;;5015065;28;20120;-69
2024/01/14 08:20:12;;;;;;;0.10;0.10;;;4.80;99.90;;;;;;5030028;28;20065;-69
2024/01/14 08:22:39;;;;;;;0.10;0.10;;;4.90;99.90;;;;;;5022539;28;20057;-69
2024/01/14 08:25:05;;;;;;;0.28;0.28;;;4.90;99.90;;;;;;5026696;28;20070;-69
2024/01/14 08:27:31;;;;;;;0.10;0.10;;;4.90;99.90;;;;;;5019698;28;20044;-70
2024/01/14 08:29:57;;;;;;;0.10;0.10;;;4.90;99.90;;;;;;5023038;28;20049;-70
2024/01/14 08:32:23;;;;;;;0.10;0.10;;;4.90;99.90;;;;;;5029698;28;20045;-70
2024/01/14 08:34:48;;;;;;;0.10;0.10;;;4.80;99.90;;;;;;5020094;28;20045;-70
2024/01/14 08:37:14;;;;;;;0.10;0.10;;;4.80;99.90;;;;;;5022717;28;20128;-70
2024/01/14 08:39:39;;;;;;;1.38;0.55;;;4.90;99.90;;;;;;5022126;28;20049;-70
2024/01/14 08:42:05;;;;;;;0.10;0.10;;;4.90;99.90;;;;;;5020896;28;20033;-70
2024/01/14 08:44:31;;;;;;;0.10;0.10;;;4.90;99.90;;;;;;5026869;28;20473;-70
2024/01/14 08:46:56;;;;;;;0.98;0.70;;;5.00;99.90;;;;;;5028870;28;20053;-70
2024/01/14 08:49:24;;;;;;;0.10;0.10;;;5.10;99.90;;;;;;5022458;28;20073;-70
2024/01/14 08:51:50;;;;;;;0.10;0.10;;;5.10;99.90;;;;;;5022982;28;20057;-70
2024/01/14 08:54:15;;;;;;;0.10;0.10;;;5.10;99.90;;;;;;5024437;28;20045;-70
2024/01/14 08:56:45;;;;;;;0.10;0.10;;;5.00;99.90;;;;;;5022987;28;20465;-70
2024/01/14 08:59:11;;;;;;;0.10;0.10;;;5.00;99.90;;;;;;5017788;28;20132;-70
2024/01/14 09:01:36;;;;;;;0.10;0.10;;;5.10;99.90;;;;;;5024618;28;20168;-70
2024/01/14 09:04:02;;;;;;;0.10;0.10;;;5.10;99.90;;;;;;5027460;28;20053;-70
2024/01/14 09:06:28;;;;;;;0.10;0.10;;;5.10;99.90;;;;;;5022202;28;20038;-70
2024/01/14 09:08:53;;;;;;;1.95;0.88;;;5.10;99.90;;;;;;5022377;28;20045;-70
2024/01/14 09:11:19;;;;;;;0.10;0.10;;;5.20;99.90;;;;;;5021875;28;20038;-70
2024/01/14 09:13:47;;;;;;;0.50;0.50;;;5.10;99.90;;;;;;5036520;28;20424;-70
2024/01/14 09:16:13;;;;;;;2.90;2.00;;;5.20;99.90;;;;;;5016916;28;20157;-70
2024/01/14 09:18:38;;;;;;;0.10;0.10;;;5.20;99.90;;;;;;5026904;28;20120;-70
2024/01/14 09:21:04;;;;;;;0.10;0.10;;;5.20;99.90;;;;;;5017964;28;20077;-70
2024/01/14 09:23:31;;;;;;;0.20;0.20;;;5.20;99.90;;;;;;5029315;28;20500;-70
2024/01/14 09:25:57;;;;;;;0.25;0.25;;;5.30;99.90;;;;;;5028818;28;20054;-70
2024/01/14 09:28:26;;;;;;;0.10;0.10;;;5.30;99.90;;;;;;5016350;28;20070;-70
2024/01/14 09:30:52;;;;;;;0.20;0.20;;;5.30;99.90;;;;;;5023766;28;20644;-70
2024/01/14 09:33:18;;;;;;;0.10;0.10;;;5.20;99.90;;;;;;5018909;28;20041;-70
2024/01/14 09:35:43;;;;;;;0.00;0.00;;;5.30;99.90;;;;;;5025365;28;20079;-70
2024/01/14 09:38:09;;;;;;;0.15;0.15;;;5.30;99.90;;;;;;5025972;28;20081;-70
2024/01/14 09:40:36;;;;;;;0.10;0.10;;;5.30;99.90;;;;;;5015077;28;20092;-70
2024/01/14 09:43:04;;;;;;;0.43;0.43;;;5.40;99.90;;;;;;5028690;28;20033;-70
2024/01/14 09:45:34;;;;;;;0.10;0.10;;;5.40;99.90;;;;;;5019206;28;20045;-70
2024/01/14 09:48:00;;;;;;;0.10;0.10;;;5.50;99.90;;;;;;5024031;28;20042;-70
2024/01/14 09:50:26;;;;;;;0.10;0.10;;;5.50;99.90;;;;;;5023715;28;20264;-70
2024/01/14 09:52:52;;;;;;;0.10;0.10;;;5.60;99.90;;;;;;5020801;28;20497;-70
2024/01/14 09:55:18;;;;;;;0.10;0.10;;;5.60;99.90;;;;;;5031359;28;20110;-70
2024/01/14 09:57:48;;;;;;;0.10;0.10;;;5.70;99.90;;;;;;5021776;28;20465;-70
2024/01/14 10:00:14;;;;;;;0.10;0.10;;;5.70;99.90;;;;;;5018101;28;20456;-70
2024/01/14 10:02:40;;;;;;;0.13;0.13;;;5.70;99.90;;;;;;5022051;28;20037;-70
2024/01/14 10:05:07;;;;;;;4.10;1.17;;;5.70;99.90;;;;;;5017527;28;20048;-70
2024/01/14 10:07:33;;;;;;;0.57;0.38;;;5.80;99.90;;;;;;5031914;28;20069;-70
2024/01/14 10:09:59;;;;;;;0.10;0.10;;;5.80;99.90;;;;;;5027983;28;20041;-70
2024/01/14 10:12:26;;;;;;;0.10;0.10;;;5.90;99.90;;;;;;5023526;28;20038;-70
2024/01/14 10:14:58;;;;;;;0.10;0.10;;;5.90;99.90;;;;;;5031019;28;20136;-70
2024/01/14 10:17:25;;;;;;;0.10;0.10;;;5.90;99.90;;;;;;5031325;28;20073;-70
2024/01/14 10:19:54;;;;;;;0.38;0.38;;;5.90;99.90;;;;;;5024035;28;20084;-70
2024/01/14 10:22:22;;;;;;;0.10;0.10;;;5.90;99.90;;;;;;5029978;28;20042;-70
2024/01/14 10:24:52;;;;;;;0.75;0.75;;;5.90;99.90;;;;;;5023473;28;20096;-70
2024/01/14 10:27:19;;;;;;;0.10;0.10;;;5.90;99.90;;;;;;5025460;28;20049;-71
2024/01/14 10:29:45;;;;;;;0.10;0.10;;;6.00;99.90;;;;;;5026407;28;20053;-70
2024/01/14 10:32:10;;;;;;;0.10;0.10;;;6.00;99.90;;;;;;5031949;28;20444;-70
2024/01/14 10:34:36;;;;;;;0.50;0.50;;;6.00;99.90;;;;;;5021747;28;20036;-70
2024/01/14 10:37:03;;;;;;;0.10;0.10;;;6.00;99.90;;;;;;5022063;28;20473;-70
2024/01/14 10:39:32;;;;;;;0.10;0.10;;;6.00;99.90;;;;;;5031743;28;20095;-70
2024/01/14 10:41:59;;;;;;;0.10;0.10;;;6.00;99.90;;;;;;5029380;28;20049;-70
2024/01/14 10:44:25;;;;;;;0.20;0.20;;;6.00;99.90;;;;;;5019920;28;20112;-70
2024/01/14 10:46:53;;;;;;;1.08;0.98;;;6.10;99.90;;;;;;5030700;28;20129;-70
2024/01/14 10:49:24;;;;;;;0.00;0.00;;;6.10;99.90;;;;;;5022719;28;20084;-70
2024/01/14 10:51:59;;;;;;;0.10;0.10;;;6.10;99.90;;;;;;5025361;28;20107;-70
2024/01/14 10:54:47;;;;;;;0.10;0.10;;;6.10;99.90;;;;;;5021093;28;20041;-70
2024/01/14 10:57:18;;;;;;;0.10;0.10;;;6.00;99.90;;;;;;5023931;28;20029;-70
2024/01/14 10:59:44;;;;;;;0.10;0.10;;;6.00;99.90;;;;;;5023610;28;20441;-70
2024/01/14 11:02:19;;;;;;;0.10;0.10;;;6.10;99.90;;;;;;5019086;28;20042;-70
2024/01/14 11:04:45;;;;;;;0.10;0.10;;;6.20;99.90;;;;;;5027568;28;20041;-70
2024/01/14 11:07:12;;;;;;;0.10;0.10;;;6.20;99.90;;;;;;5027237;28;20132;-70
2024/01/14 11:09:40;;;;;;;0.10;0.10;;;6.30;99.90;;;;;;5017534;28;20384;-70
2024/01/14 11:12:17;;;;;;;0.10;0.10;;;6.40;99.90;;;;;;5027990;28;20073;-70
2024/01/14 11:14:56;;;;;;;0.10;0.10;;;6.40;99.90;;;;;;5016369;28;20041;-70
2024/01/14 11:17:52;;;;;;;0.10;0.10;;;6.40;99.90;;;;;;5024441;28;20103;-70
2024/01/14 11:20:23;;;;;;;0.10;0.10;;;6.50;99.90;;;;;;5027717;28;20133;-70
2024/01/14 11:22:50;;;;;;;0.80;0.80;;;6.50;99.90;;;;;;5026014;28;20736;-70
2024/01/14 11:25:16;;;;;;;0.10;0.10;;;6.50;99.90;;;;;;5020442;28;20128;-70
2024/01/14 11:27:42;;;;;;;0.10;0.10;;;6.60;99.90;;;;;;5026708;28;20061;-70
2024/01/14 11:30:11;;;;;;;0.10;0.10;;;6.70;99.90;;;;;;5030445;28;20056;-70
2024/01/14 11:32:37;;;;;;;0.10;0.10;;;6.70;99.90;;;;;;5027041;28;20053;-70
2024/01/14 11:35:03;;;;;;;0.10;0.10;;;6.80;99.90;;;;;;5023486;28;20033;-70
2024/01/14 11:37:42;;;;;;;0.10;0.10;;;6.90;99.90;;;;;;5027275;28;20045;-70
2024/01/14 11:40:07;;;;;;;0.10;0.10;;;6.90;99.90;;;;;;5023308;28;20073;-70
2024/01/14 11:42:37;;;;;;;0.10;0.10;;;7.00;99.90;;;;;;5023735;28;20080;-70
2024/01/14 11:45:11;;;;;;;0.10;0.10;;;7.10;99.90;;;;;;5024113;28;20038;-70
2024/01/14 11:47:40;;;;;;;1.35;1.20;;;7.10;99.90;;;;;;5028296;28;20053;-70
2024/01/14 11:50:09;;;;;;;0.10;0.10;;;7.20;99.90;;;;;;5029670;28;20076;-70
2024/01/14 11:52:51;;;;;;;0.10;0.10;;;7.40;99.90;;;;;;5020307;28;20125;-70
2024/01/14 11:55:18;;;;;;;0.10;0.10;;;7.60;99.90;;;;;;5023957;28;21703;-70
2024/01/14 11:57:45;;;;;;;0.10;0.10;;;7.80;99.90;;;;;;5028493;28;20064;-70
2024/01/14 12:00:11;;;;;;;0.10;0.10;;;8.00;99.90;;;;;;5024096;28;20116;-70
2024/01/14 12:02:37;;;;;;;0.10;0.10;;;8.30;99.90;;;;;;5035579;28;20043;-70
2024/01/14 12:05:20;;;;;;;0.00;0.00;;;8.40;99.90;;;;;;5027863;28;20049;-70
2024/01/14 12:07:46;;;;;;;0.10;0.10;;;8.50;99.90;;;;;;5026633;28;20045;-70
2024/01/14 12:10:16;;;;;;;0.10;0.10;;;8.30;99.90;;;;;;5023034;28;20129;-70
2024/01/14 12:12:42;;;;;;;0.15;0.15;;;8.40;99.90;;;;;;5016865;28;20445;-70
2024/01/14 12:15:13;;;;;;;0.10;0.10;;;8.50;99.90;;;;;;5033062;28;20091;-70
2024/01/14 12:17:39;;;;;;;0.00;0.00;;;8.40;99.90;;;;;;5017337;28;20037;-70
2024/01/14 12:20:08;;;;;;;0.10;0.10;;;8.20;99.90;;;;;;5020019;28;20051;-70
2024/01/14 12:22:35;;;;;;;0.10;0.10;;;8.00;99.90;;;;;;5026210;28;20045;-70
2024/01/14 12:25:01;;;;;;;0.17;0.17;;;8.10;99.90;;;;;;5025979;28;20080;-70
2024/01/14 12:27:27;;;;;;;0.10;0.10;;;8.20;99.90;;;;;;5012250;28;20045;-70
2024/01/14 12:29:54;;;;;;;0.10;0.10;;;8.50;99.90;;;;;;5020505;28;20489;-70
2024/01/14 12:32:20;;;;;;;0.10;0.10;;;8.60;99.90;;;;;;5026825;28;20049;-70
2024/01/14 12:34:49;;;;;;;0.10;0.10;;;8.40;99.90;;;;;;5027757;28;20046;-70
2024/01/14 12:37:15;;;;;;;0.10;0.10;;;8.60;99.90;;;;;;5021896;28;20588;-70
2024/01/14 12:39:41;;;;;;;0.10;0.10;;;8.60;99.90;;;;;;5027230;28;20565;-71
2024/01/14 12:42:07;;;;;;;1.80;1.65;;;8.60;99.90;;;;;;5027002;28;20128;-70
2024/01/14 12:44:39;;;;;;;0.10;0.10;;;8.50;99.90;;;;;;5028398;28;20051;-70
2024/01/14 12:47:06;;;;;;;0.10;0.10;;;8.20;99.90;;;;;;5021485;28;20673;-70
2024/01/14 12:49:32;;;;;;;0.10;0.10;;;8.10;99.90;;;;;;5037776;28;20047;-70
2024/01/14 12:52:08;;;;;;;0.10;0.10;;;8.00;99.90;;;;;;5019895;28;20400;-70
2024/01/14 12:54:33;;;;;;;1.20;0.77;;;7.90;99.90;;;;;;5025164;28;20064;-70